Time;durP1;ratioP1;P1;durP2;ratioP2;P2;SDS_P1;SDS_P2;PMS_P1;PMS_P2;Temp;Humidity;BMP_temperature;BMP_pressure;BME280_temperature;BME280_humidity;BME280_pressure;Samples;Min_cycle;Max_cycle;Signal;HPM_P1;HPM_P2
2021/03/10 00:00:09;;;;;;;183.13;57.17;;;2.40;99.90;;;;;;5003824;28;20140;-74
2021/03/10 00:02:39;;;;;;;162.45;55.08;;;2.50;99.90;;;;;;5004493;28;20063;-75
2021/03/10 00:05:07;;;;;;;169.68;55.55;;;2.50;99.90;;;;;;5020912;28;20050;-74
2021/03/10 00:07:34;;;;;;;163.30;53.33;;;2.50;99.90;;;;;;5003166;28;20194;-75
2021/03/10 00:10:02;;;;;;;159.38;54.72;;;2.70;99.90;;;;;;4988910;28;20122;-76
2021/03/10 00:12:28;;;;;;;145.13;50.67;;;2.70;99.90;;;;;;4985337;28;20038;-76
2021/03/10 00:14:55;;;;;;;136.82;49.50;;;2.70;99.90;;;;;;4974712;28;20054;-75
2021/03/10 00:17:21;;;;;;;134.35;51.45;;;2.80;99.90;;;;;;4970472;28;20068;-74
2021/03/10 00:19:48;;;;;;;135.98;50.35;;;2.70;99.90;;;;;;4987061;28;20078;-74
2021/03/10 00:22:15;;;;;;;308.80;65.95;;;2.70;99.90;;;;;;5002747;28;20202;-76
2021/03/10 00:24:41;;;;;;;158.80;53.25;;;2.80;99.90;;;;;;4983766;28;20054;-74
2021/03/10 00:27:08;;;;;;;138.85;51.42;;;2.80;99.90;;;;;;4988045;28;20053;-74
2021/03/10 00:29:35;;;;;;;145.18;51.67;;;2.70;99.90;;;;;;5011090;28;20039;-74
2021/03/10 00:32:01;;;;;;;147.48;51.40;;;2.50;99.90;;;;;;4987199;28;20042;-76
2021/03/10 00:34:27;;;;;;;141.75;52.05;;;2.60;99.90;;;;;;4987022;28;20491;-75
2021/03/10 00:36:54;;;;;;;143.90;52.17;;;2.50;99.90;;;;;;5003378;28;20058;-76
2021/03/10 00:39:20;;;;;;;159.90;53.88;;;2.50;99.90;;;;;;4990198;28;20088;-77
2021/03/10 00:41:46;;;;;;;172.57;56.03;;;2.50;99.90;;;;;;4986210;28;20677;-73
2021/03/10 00:44:13;;;;;;;203.40;61.63;;;2.60;99.90;;;;;;4986350;28;20050;-73
2021/03/10 00:46:39;;;;;;;171.10;56.60;;;2.60;99.90;;;;;;4987063;28;20050;-73
2021/03/10 00:49:05;;;;;;;179.80;58.92;;;2.60;99.90;;;;;;4988233;28;20137;-75
2021/03/10 00:51:32;;;;;;;189.88;56.35;;;2.60;99.90;;;;;;4987340;28;20054;-75
2021/03/10 00:53:58;;;;;;;174.65;56.78;;;2.70;99.90;;;;;;4961250;28;20062;-74
2021/03/10 00:56:24;;;;;;;170.70;56.72;;;2.60;99.90;;;;;;5003524;28;20052;-75
2021/03/10 00:58:51;;;;;;;232.63;60.80;;;2.50;99.90;;;;;;4971085;28;20046;-76
2021/03/10 01:01:17;;;;;;;213.65;63.13;;;2.60;99.90;;;;;;4985035;28;20046;-75
2021/03/10 01:03:43;;;;;;;221.10;59.20;;;2.60;99.90;;;;;;5003130;28;20073;-75
2021/03/10 01:06:10;;;;;;;199.05;60.80;;;2.60;99.90;;;;;;4986837;28;20050;-75
2021/03/10 01:08:36;;;;;;;189.95;56.88;;;2.60;99.90;;;;;;5002830;28;20096;-75
2021/03/10 01:11:03;;;;;;;165.68;55.88;;;2.60;99.90;;;;;;4979259;28;20677;-74
2021/03/10 01:13:29;;;;;;;177.25;58.08;;;2.50;99.90;;;;;;4986842;28;20050;-74
2021/03/10 01:15:56;;;;;;;218.93;63.35;;;2.50;99.90;;;;;;4985735;28;20137;-75
2021/03/10 01:18:22;;;;;;;199.00;59.72;;;2.60;99.90;;;;;;4984021;28;20085;-74
2021/03/10 01:20:48;;;;;;;167.30;55.58;;;2.70;99.90;;;;;;5000564;28;20042;-75
2021/03/10 01:23:15;;;;;;;170.32;58.40;;;2.60;99.90;;;;;;4985438;28;20120;-75
2021/03/10 01:25:42;;;;;;;198.15;58.28;;;2.60;99.90;;;;;;4990451;28;20047;-75
2021/03/10 01:28:08;;;;;;;222.43;59.90;;;2.50;99.90;;;;;;4954304;28;20042;-74
2021/03/10 01:30:35;;;;;;;250.25;64.75;;;2.50;99.90;;;;;;4970140;28;20043;-74
2021/03/10 01:33:01;;;;;;;176.27;57.70;;;2.60;99.90;;;;;;4970209;28;20046;-74
2021/03/10 01:35:28;;;;;;;233.27;65.95;;;2.70;99.90;;;;;;4981464;28;20506;-75
2021/03/10 01:37:54;;;;;;;182.15;55.35;;;2.60;99.90;;;;;;4982229;28;20130;-76
2021/03/10 01:40:21;;;;;;;235.57;63.65;;;2.60;99.90;;;;;;4982900;28;20108;-75
2021/03/10 01:42:47;;;;;;;246.75;66.72;;;2.40;99.90;;;;;;4986725;28;20046;-75
2021/03/10 01:45:14;;;;;;;266.20;65.30;;;2.40;99.90;;;;;;4954178;28;20058;-74
2021/03/10 01:47:51;;;;;;;239.32;61.58;;;2.40;99.90;;;;;;4985866;28;20113;-74
2021/03/10 01:50:19;;;;;;;234.70;59.50;;;2.30;99.90;;;;;;4987161;28;20147;-75
2021/03/10 01:52:47;;;;;;;273.88;63.55;;;2.20;99.90;;;;;;4982113;28;20050;-74
2021/03/10 01:55:13;;;;;;;350.30;69.55;;;2.20;99.90;;;;;;5018726;28;20039;-74
2021/03/10 01:57:40;;;;;;;348.50;72.75;;;2.20;99.90;;;;;;4987700;28;20054;-76
2021/03/10 02:00:08;;;;;;;326.45;71.00;;;2.20;99.90;;;;;;5018520;28;20533;-75
2021/03/10 02:02:42;;;;;;;387.02;75.38;;;2.10;99.90;;;;;;5018597;28;20415;-75
2021/03/10 02:05:17;;;;;;;328.38;69.53;;;2.10;99.90;;;;;;4985840;28;20158;-74
2021/03/10 02:07:54;;;;;;;256.55;62.97;;;2.20;99.90;;;;;;4985798;28;20060;-75
2021/03/10 02:10:53;;;;;;;248.30;63.30;;;2.20;99.90;;;;;;4969494;28;20431;-75
2021/03/10 02:13:42;;;;;;;262.50;64.20;;;2.10;99.90;;;;;;4957173;28;20042;-75
2021/03/10 02:16:20;;;;;;;245.30;63.55;;;2.20;99.90;;;;;;4963092;28;20049;-75
2021/03/10 02:18:53;;;;;;;296.88;67.25;;;2.20;99.90;;;;;;4983589;28;20042;-75
2021/03/10 02:21:37;;;;;;;257.48;62.22;;;2.20;99.90;;;;;;4986294;28;20049;-75
2021/03/10 02:24:18;;;;;;;260.42;65.97;;;2.20;99.90;;;;;;4975036;28;20081;-74
2021/03/10 02:26:57;;;;;;;260.55;63.75;;;2.10;99.90;;;;;;4997495;28;20049;-74
2021/03/10 02:29:26;;;;;;;285.48;64.32;;;2.10;99.90;;;;;;4997734;28;20089;-74
2021/03/10 02:31:55;;;;;;;243.40;63.72;;;2.10;99.90;;;;;;4968894;28;20138;-72
2021/03/10 02:34:22;;;;;;;199.02;57.97;;;2.20;99.90;;;;;;4985232;28;20174;-74
2021/03/10 02:37:01;;;;;;;449.00;82.82;;;2.20;99.90;;;;;;4969670;28;20060;-74
2021/03/10 02:39:28;;;;;;;326.98;67.93;;;2.10;99.90;;;;;;4985207;28;20060;-74
2021/03/10 02:41:55;;;;;;;490.67;84.05;;;2.10;99.90;;;;;;4982416;28;20058;-73
2021/03/10 02:44:22;;;;;;;451.38;83.00;;;2.10;99.90;;;;;;4984770;28;20148;-74
2021/03/10 02:46:49;;;;;;;629.38;97.15;;;2.10;99.90;;;;;;4985044;28;20129;-74
2021/03/10 02:49:16;;;;;;;536.17;89.28;;;2.10;99.90;;;;;;4983674;28;20046;-74
2021/03/10 02:51:45;;;;;;;500.02;85.32;;;2.20;99.90;;;;;;4976024;28;20038;-74
2021/03/10 02:54:13;;;;;;;527.00;84.30;;;2.30;99.90;;;;;;5000297;28;20764;-75
2021/03/10 02:56:43;;;;;;;563.35;86.38;;;2.40;99.90;;;;;;4982825;28;20069;-75
2021/03/10 02:59:10;;;;;;;499.85;86.90;;;2.40;99.90;;;;;;4967794;28;20699;-75
2021/03/10 03:01:36;;;;;;;542.03;89.55;;;2.30;99.90;;;;;;4983565;28;20049;-75
2021/03/10 03:04:03;;;;;;;672.70;96.00;;;2.30;99.90;;;;;;4983959;28;20154;-75
2021/03/10 03:06:29;;;;;;;607.67;89.55;;;2.30;99.90;;;;;;4983802;28;20050;-74
2021/03/10 03:08:56;;;;;;;622.33;93.72;;;2.10;99.90;;;;;;4964119;28;20077;-73
2021/03/10 03:11:23;;;;;;;660.17;92.88;;;1.90;99.90;;;;;;4963431;28;20132;-74
2021/03/10 03:13:51;;;;;;;457.50;81.68;;;1.90;99.90;;;;;;4977406;28;20051;-74
2021/03/10 03:16:18;;;;;;;619.40;94.07;;;1.90;99.90;;;;;;4946619;28;20057;-75
2021/03/10 03:18:44;;;;;;;547.08;89.72;;;1.90;99.90;;;;;;4979420;28;20145;-74
2021/03/10 03:21:11;;;;;;;481.42;80.45;;;2.00;99.90;;;;;;4972903;28;20149;-74
2021/03/10 03:23:40;;;;;;;518.67;81.45;;;2.00;99.90;;;;;;4983943;28;20065;-74
2021/03/10 03:26:06;;;;;;;594.00;89.60;;;1.90;99.90;;;;;;4975386;28;20160;-75
2021/03/10 03:28:34;;;;;;;520.85;83.80;;;1.90;99.90;;;;;;4998305;28;20073;-74
2021/03/10 03:31:01;;;;;;;417.52;81.05;;;1.90;99.90;;;;;;4950915;28;20292;-75
2021/03/10 03:33:28;;;;;;;533.90;89.32;;;1.90;99.90;;;;;;4983248;28;20069;-74
2021/03/10 03:35:57;;;;;;;563.63;93.45;;;2.10;99.90;;;;;;4982541;28;20510;-74
2021/03/10 03:38:28;;;;;;;674.35;104.07;;;2.10;99.90;;;;;;4983445;28;20069;-74
2021/03/10 03:40:56;;;;;;;631.92;98.93;;;2.10;99.90;;;;;;4965569;28;20659;-74
2021/03/10 03:43:25;;;;;;;630.45;97.05;;;2.20;99.90;;;;;;4967560;28;20048;-75
2021/03/10 03:45:51;;;;;;;580.15;91.20;;;2.30;99.90;;;;;;4967220;28;20057;-73
2021/03/10 03:48:19;;;;;;;646.97;102.88;;;2.30;99.90;;;;;;4984358;28;20320;-74
2021/03/10 03:50:46;;;;;;;720.08;106.22;;;2.20;99.90;;;;;;4998510;28;20486;-75
2021/03/10 03:53:13;;;;;;;841.95;113.72;;;2.20;99.90;;;;;;4998778;28;20125;-75
2021/03/10 03:55:40;;;;;;;774.08;107.63;;;2.20;99.90;;;;;;4983492;28;20545;-74
2021/03/10 03:58:07;;;;;;;750.15;107.53;;;2.20;99.90;;;;;;4994991;28;20061;-74
2021/03/10 04:00:33;;;;;;;670.97;96.28;;;2.00;99.90;;;;;;4987670;28;20129;-74
2021/03/10 04:03:00;;;;;;;465.45;80.07;;;1.90;99.90;;;;;;4982826;28;20055;-74
2021/03/10 04:05:27;;;;;;;748.67;108.07;;;2.00;99.90;;;;;;4982966;28;20128;-74
2021/03/10 04:08:09;;;;;;;404.33;78.80;;;2.10;99.90;;;;;;4999910;28;20049;-74
2021/03/10 04:10:38;;;;;;;678.25;102.78;;;2.00;99.90;;;;;;4999006;28;20047;-74
2021/03/10 04:13:05;;;;;;;631.60;100.70;;;2.00;99.90;;;;;;4984688;28;20062;-74
2021/03/10 04:15:33;;;;;;;632.88;99.30;;;2.10;99.90;;;;;;4964204;28;20046;-74
2021/03/10 04:18:01;;;;;;;570.45;92.03;;;2.20;99.90;;;;;;4960642;28;20138;-74
2021/03/10 04:20:27;;;;;;;554.92;91.03;;;2.20;99.90;;;;;;4987168;28;20058;-74
2021/03/10 04:22:54;;;;;;;643.67;105.20;;;2.20;99.90;;;;;;4953217;28;20057;-74
2021/03/10 04:25:21;;;;;;;780.30;116.35;;;2.20;99.90;;;;;;4975439;28;20062;-73
2021/03/10 04:27:47;;;;;;;713.08;110.25;;;2.30;99.90;;;;;;4970719;28;20169;-75
2021/03/10 04:30:14;;;;;;;703.45;106.05;;;2.40;99.90;;;;;;4986541;28;20046;-74
2021/03/10 04:32:41;;;;;;;561.20;93.47;;;2.40;99.90;;;;;;5003172;28;20057;-74
2021/03/10 04:35:09;;;;;;;417.90;83.88;;;2.40;99.90;;;;;;4985282;28;20061;-74
2021/03/10 04:37:36;;;;;;;410.35;83.72;;;2.50;99.90;;;;;;4987083;28;20151;-75
2021/03/10 04:40:03;;;;;;;492.85;90.43;;;2.40;99.90;;;;;;4987676;28;20598;-74
2021/03/10 04:42:29;;;;;;;488.10;88.85;;;2.40;99.90;;;;;;4983919;28;20054;-74
2021/03/10 04:44:56;;;;;;;482.00;91.07;;;2.30;99.90;;;;;;5003151;28;20430;-73
2021/03/10 04:47:22;;;;;;;435.73;83.18;;;2.30;99.90;;;;;;4969351;28;20042;-74
2021/03/10 04:49:49;;;;;;;298.52;73.63;;;2.40;99.90;;;;;;4986467;28;20074;-74
2021/03/10 04:52:20;;;;;;;550.83;90.40;;;2.40;99.90;;;;;;5017504;28;20042;-74
2021/03/10 04:54:46;;;;;;;360.08;77.53;;;2.50;99.90;;;;;;4984126;28;20042;-73
2021/03/10 04:57:13;;;;;;;370.38;77.93;;;2.40;99.90;;;;;;4986572;28;20513;-74
2021/03/10 04:59:39;;;;;;;324.40;73.28;;;2.40;99.90;;;;;;5019462;28;20064;-74
2021/03/10 05:02:06;;;;;;;432.42;84.72;;;2.30;99.90;;;;;;4986035;28;20050;-73
2021/03/10 05:04:32;;;;;;;347.30;78.68;;;2.40;99.90;;;;;;4986423;28;20057;-74
2021/03/10 05:06:59;;;;;;;346.90;74.43;;;2.30;99.90;;;;;;4987436;28;20053;-74
2021/03/10 05:09:25;;;;;;;419.52;83.72;;;2.30;99.90;;;;;;5002537;28;20133;-74
2021/03/10 05:11:51;;;;;;;387.35;81.40;;;2.20;99.90;;;;;;4986896;28;20054;-74
2021/03/10 05:14:18;;;;;;;323.65;76.15;;;2.20;99.90;;;;;;4983981;28;20046;-74
2021/03/10 05:16:44;;;;;;;299.35;72.68;;;2.20;99.90;;;;;;4984709;28;20507;-75
2021/03/10 05:19:10;;;;;;;316.85;73.82;;;2.20;99.90;;;;;;5001456;28;20050;-75
2021/03/10 05:21:36;;;;;;;308.33;74.68;;;2.20;99.90;;;;;;5002271;28;20320;-74
2021/03/10 05:24:03;;;;;;;290.63;70.30;;;2.20;99.90;;;;;;4970085;28;20706;-75
2021/03/10 05:26:29;;;;;;;215.13;56.33;;;2.20;99.90;;;;;;4967790;28;20050;-74
2021/03/10 05:28:56;;;;;;;208.50;49.60;;;2.30;99.90;;;;;;4968840;28;20081;-74
2021/03/10 05:31:22;;;;;;;183.43;50.65;;;2.40;99.90;;;;;;4985625;28;20662;-74
2021/03/10 05:33:50;;;;;;;217.73;50.92;;;2.40;99.90;;;;;;4985481;28;20078;-74
2021/03/10 05:36:16;;;;;;;190.07;48.85;;;2.40;99.90;;;;;;4952295;28;20072;-74
2021/03/10 05:38:42;;;;;;;194.98;50.00;;;2.30;99.90;;;;;;4969139;28;20050;-74
2021/03/10 05:41:09;;;;;;;195.73;51.80;;;2.20;99.90;;;;;;4985789;28;20054;-74
2021/03/10 05:43:37;;;;;;;204.80;49.95;;;2.30;99.90;;;;;;4969351;28;20050;-74
2021/03/10 05:46:03;;;;;;;259.83;56.97;;;2.20;99.90;;;;;;4986759;28;20081;-74
2021/03/10 05:48:30;;;;;;;249.32;56.42;;;2.30;99.90;;;;;;5001178;28;20064;-74
2021/03/10 05:50:58;;;;;;;225.18;53.50;;;2.20;99.90;;;;;;5017559;28;20193;-75
2021/03/10 05:53:28;;;;;;;208.70;51.10;;;2.30;99.90;;;;;;5001210;28;20042;-74
2021/03/10 05:55:55;;;;;;;290.77;60.63;;;2.30;99.90;;;;;;5009440;28;20050;-74
2021/03/10 05:58:21;;;;;;;252.90;57.67;;;2.30;99.90;;;;;;4964091;28;20061;-74
2021/03/10 06:00:48;;;;;;;301.65;60.47;;;2.30;99.90;;;;;;4983579;28;20054;-73
2021/03/10 06:03:15;;;;;;;282.10;58.38;;;2.20;99.90;;;;;;4984505;28;20051;-73
2021/03/10 06:05:43;;;;;;;404.88;67.95;;;2.10;99.90;;;;;;4968431;28;20141;-74
2021/03/10 06:08:14;;;;;;;311.05;61.30;;;2.10;99.90;;;;;;4978824;28;20065;-74
2021/03/10 06:10:46;;;;;;;252.32;60.53;;;2.10;99.90;;;;;;4967147;28;20435;-75
2021/03/10 06:13:31;;;;;;;282.25;62.25;;;2.10;99.90;;;;;;4966071;28;20282;-75
2021/03/10 06:16:02;;;;;;;240.98;55.95;;;2.20;99.90;;;;;;4979880;28;20043;-75
2021/03/10 06:18:31;;;;;;;270.17;60.42;;;2.20;99.90;;;;;;4984596;28;20438;-74
2021/03/10 06:21:08;;;;;;;258.27;62.47;;;2.20;99.90;;;;;;4984198;28;20178;-74
2021/03/10 06:23:36;;;;;;;240.98;59.90;;;2.30;99.90;;;;;;4984732;28;20142;-74
2021/03/10 06:26:03;;;;;;;306.75;74.32;;;2.40;99.90;;;;;;4959970;28;20141;-74
2021/03/10 06:28:38;;;;;;;313.73;72.65;;;2.50;99.90;;;;;;4984187;28;20056;-74
2021/03/10 06:31:16;;;;;;;305.58;71.90;;;2.50;99.90;;;;;;4997337;28;20057;-73
2021/03/10 06:33:43;;;;;;;289.48;71.57;;;2.50;99.90;;;;;;4997840;28;20046;-74
2021/03/10 06:36:09;;;;;;;331.60;71.85;;;2.70;99.90;;;;;;4983720;28;20050;-76
2021/03/10 06:38:35;;;;;;;330.33;77.40;;;2.80;99.90;;;;;;4985289;28;20049;-75
2021/03/10 06:41:02;;;;;;;277.23;69.75;;;2.80;99.90;;;;;;4972898;28;20642;-75
2021/03/10 06:43:40;;;;;;;258.23;68.50;;;2.70;99.90;;;;;;4992594;28;20057;-76
2021/03/10 06:46:11;;;;;;;276.65;68.00;;;2.60;99.90;;;;;;5000193;28;20137;-73
2021/03/10 06:48:38;;;;;;;284.90;72.47;;;2.60;99.90;;;;;;4984722;28;20108;-75
2021/03/10 06:51:13;;;;;;;295.02;74.32;;;2.50;99.90;;;;;;4984379;28;20101;-74
2021/03/10 06:53:40;;;;;;;295.67;68.45;;;2.60;99.90;;;;;;4965832;28;20830;-75
2021/03/10 06:56:19;;;;;;;274.27;68.68;;;2.50;99.90;;;;;;4981407;28;20065;-76
2021/03/10 06:58:55;;;;;;;289.90;71.57;;;2.50;99.90;;;;;;4997784;28;20177;-74
2021/03/10 07:01:23;;;;;;;271.35;66.75;;;2.50;99.90;;;;;;4964782;28;20077;-74
2021/03/10 07:03:51;;;;;;;262.33;67.68;;;2.50;99.90;;;;;;4983841;28;20050;-73
2021/03/10 07:06:18;;;;;;;237.55;62.20;;;2.50;99.90;;;;;;4983539;28;20046;-74
2021/03/10 07:08:46;;;;;;;219.93;63.45;;;2.60;99.90;;;;;;4984065;28;20041;-73
2021/03/10 07:11:14;;;;;;;259.77;67.03;;;2.60;99.90;;;;;;4984666;28;20057;-73
2021/03/10 07:13:42;;;;;;;248.55;65.97;;;2.60;99.90;;;;;;4981165;28;20053;-74
2021/03/10 07:16:10;;;;;;;250.02;67.03;;;2.60;99.90;;;;;;4981497;28;20053;-73
2021/03/10 07:18:37;;;;;;;241.00;67.15;;;2.70;99.90;;;;;;4994959;28;20113;-73
2021/03/10 07:21:06;;;;;;;235.10;63.50;;;2.70;99.90;;;;;;4994182;28;20046;-73
2021/03/10 07:23:40;;;;;;;231.23;63.25;;;2.70;99.90;;;;;;5016327;28;20046;-74
2021/03/10 07:26:08;;;;;;;218.82;62.42;;;2.80;99.90;;;;;;4964654;28;20259;-73
2021/03/10 07:28:35;;;;;;;197.05;60.78;;;2.80;99.90;;;;;;4970413;28;20034;-74
2021/03/10 07:31:16;;;;;;;185.48;58.10;;;2.80;99.90;;;;;;4998996;28;20039;-73
2021/03/10 07:33:49;;;;;;;203.25;58.63;;;2.80;99.90;;;;;;4999599;28;20042;-74
2021/03/10 07:36:16;;;;;;;191.25;58.60;;;2.80;99.90;;;;;;4999957;28;20061;-74
2021/03/10 07:38:42;;;;;;;177.02;56.70;;;3.00;99.90;;;;;;4967558;28;20038;-75
2021/03/10 07:41:14;;;;;;;172.55;57.42;;;3.00;99.90;;;;;;4995818;28;20050;-74
2021/03/10 07:43:50;;;;;;;172.65;58.25;;;3.00;99.90;;;;;;4993810;28;20046;-74
2021/03/10 07:46:23;;;;;;;161.10;55.03;;;3.10;99.90;;;;;;4982529;28;20861;-75
2021/03/10 07:48:50;;;;;;;151.48;54.33;;;3.10;99.90;;;;;;5000514;28;20058;-73
2021/03/10 07:51:34;;;;;;;152.32;52.00;;;3.00;99.90;;;;;;4967026;28;20126;-73
2021/03/10 07:54:19;;;;;;;137.77;52.35;;;3.10;99.90;;;;;;4988046;28;20112;-74
2021/03/10 07:56:45;;;;;;;137.73;54.10;;;3.10;99.90;;;;;;4987998;28;20138;-76
2021/03/10 07:59:15;;;;;;;135.95;49.00;;;3.20;99.90;;;;;;5004190;28;20087;-74
2021/03/10 08:01:46;;;;;;;135.85;52.72;;;3.10;99.90;;;;;;5003957;28;20100;-74
2021/03/10 08:04:18;;;;;;;137.02;51.08;;;3.10;99.90;;;;;;4987642;28;20047;-75
2021/03/10 08:06:49;;;;;;;119.80;46.70;;;3.20;99.90;;;;;;4970405;28;20039;-75
2021/03/10 08:09:18;;;;;;;119.05;48.80;;;3.20;99.90;;;;;;4985918;28;20262;-75
2021/03/10 08:11:47;;;;;;;113.72;45.05;;;3.30;99.90;;;;;;4984664;28;20653;-74
2021/03/10 08:14:16;;;;;;;122.68;46.97;;;3.30;99.90;;;;;;4988315;28;20415;-76
2021/03/10 08:16:47;;;;;;;124.53;48.67;;;3.40;99.90;;;;;;5001232;28;20456;-76
2021/03/10 08:19:20;;;;;;;114.97;46.80;;;3.50;99.90;;;;;;4991929;28;20050;-75
2021/03/10 08:21:48;;;;;;;113.47;47.08;;;3.50;99.90;;;;;;4983706;28;20484;-75
2021/03/10 08:24:15;;;;;;;114.60;46.88;;;3.50;99.90;;;;;;4987015;28;20500;-76
2021/03/10 08:26:42;;;;;;;109.55;48.45;;;3.50;99.90;;;;;;5003330;28;20652;-74
2021/03/10 08:29:09;;;;;;;109.53;44.58;;;3.50;99.90;;;;;;4980656;28;20042;-73
2021/03/10 08:31:53;;;;;;;102.60;44.35;;;3.50;99.90;;;;;;5013162;28;20043;-74
2021/03/10 08:34:37;;;;;;;103.80;45.92;;;3.50;99.90;;;;;;4994030;28;20098;-73
2021/03/10 08:37:10;;;;;;;103.72;44.65;;;3.60;99.90;;;;;;4979991;28;20082;-74
2021/03/10 08:39:41;;;;;;;105.05;43.67;;;3.70;99.90;;;;;;5011385;28;20097;-74
2021/03/10 08:42:09;;;;;;;96.05;41.08;;;3.80;99.90;;;;;;4984683;28;20137;-74
2021/03/10 08:44:40;;;;;;;99.78;41.53;;;3.90;99.90;;;;;;4978867;28;20069;-74
2021/03/10 08:47:15;;;;;;;99.72;45.00;;;3.90;99.90;;;;;;4973168;28;20053;-75
2021/03/10 08:49:43;;;;;;;111.88;46.63;;;4.00;99.90;;;;;;4986707;28;20046;-74
2021/03/10 08:52:14;;;;;;;101.40;46.50;;;4.10;99.90;;;;;;4986051;28;20668;-75
2021/03/10 08:54:45;;;;;;;112.22;46.28;;;4.20;99.90;;;;;;5003512;28;20085;-74
2021/03/10 08:57:11;;;;;;;105.45;45.08;;;4.10;99.90;;;;;;4987222;28;20078;-75
2021/03/10 08:59:38;;;;;;;111.53;46.63;;;4.20;99.90;;;;;;4986869;28;20157;-74
2021/03/10 09:02:07;;;;;;;99.63;44.13;;;4.30;99.90;;;;;;5002159;28;20077;-74
2021/03/10 09:04:34;;;;;;;112.50;45.70;;;4.30;99.90;;;;;;4970377;28;20268;-74
2021/03/10 09:07:01;;;;;;;106.53;45.90;;;4.30;99.90;;;;;;5000675;28;20050;-74
2021/03/10 09:09:32;;;;;;;115.72;47.65;;;4.50;99.90;;;;;;4986481;28;20058;-75
2021/03/10 09:11:59;;;;;;;100.85;46.90;;;4.50;99.90;;;;;;4961816;28;20050;-74
2021/03/10 09:14:42;;;;;;;102.47;45.53;;;4.60;99.90;;;;;;4955690;28;20400;-73
2021/03/10 09:17:12;;;;;;;106.65;46.05;;;4.60;99.90;;;;;;4996582;28;20158;-73
2021/03/10 09:19:48;;;;;;;104.53;46.70;;;4.80;99.90;;;;;;4947715;28;20062;-74
2021/03/10 09:22:20;;;;;;;99.18;47.22;;;4.90;99.90;;;;;;4986374;28;20066;-74
2021/03/10 09:25:11;;;;;;;94.50;42.72;;;5.00;99.90;;;;;;4960311;28;20057;-74
2021/03/10 09:27:45;;;;;;;103.38;46.40;;;4.90;99.90;;;;;;4986518;28;20042;-73
2021/03/10 09:30:25;;;;;;;101.05;46.03;;;4.70;99.90;;;;;;4970501;28;20500;-73
2021/03/10 09:32:51;;;;;;;99.82;45.10;;;4.80;99.90;;;;;;4988361;28;20058;-77
2021/03/10 09:35:28;;;;;;;100.47;47.60;;;4.90;99.90;;;;;;4985620;28;20635;-73
2021/03/10 09:37:58;;;;;;;79.03;42.22;;;5.00;99.90;;;;;;4985899;28;20298;-73
2021/03/10 09:40:33;;;;;;;84.18;42.75;;;5.10;99.90;;;;;;4985816;28;20058;-74
2021/03/10 09:43:25;;;;;;;84.03;41.33;;;5.20;99.90;;;;;;4985453;28;20050;-74
2021/03/10 09:45:58;;;;;;;97.97;45.63;;;5.10;99.90;;;;;;4985906;28;20058;-74
2021/03/10 09:48:33;;;;;;;78.25;41.42;;;5.30;99.90;;;;;;5018524;28;20651;-75
2021/03/10 09:51:16;;;;;;;92.97;45.90;;;5.20;99.90;;;;;;5002504;28;20062;-74
2021/03/10 09:53:48;;;;;;;85.63;43.28;;;5.40;99.90;;;;;;5001525;28;20141;-73
2021/03/10 09:56:21;;;;;;;77.32;42.67;;;5.40;99.90;;;;;;5000814;28;20142;-74
2021/03/10 09:58:57;;;;;;;75.95;41.40;;;5.50;99.90;;;;;;4965680;28;20507;-74
2021/03/10 10:01:30;;;;;;;69.32;38.28;;;5.60;99.90;;;;;;5001489;28;20738;-74
2021/03/10 10:04:10;;;;;;;63.15;37.55;;;5.60;99.90;;;;;;4985242;28;20348;-73
2021/03/10 10:06:49;;;;;;;40.55;29.67;;;5.60;99.90;;;;;;4985187;28;20065;-73
2021/03/10 10:09:15;;;;;;;45.47;29.10;;;5.50;99.90;;;;;;5001308;28;20058;-73
2021/03/10 10:11:42;;;;;;;44.38;29.67;;;5.60;99.90;;;;;;4985046;28;20066;-75
2021/03/10 10:14:08;;;;;;;45.00;29.73;;;5.60;99.90;;;;;;4981678;28;20504;-72
2021/03/10 10:16:37;;;;;;;44.38;29.67;;;5.60;99.90;;;;;;5000429;28;20050;-73
2021/03/10 10:19:11;;;;;;;42.50;30.58;;;5.70;99.90;;;;;;4985875;28;20109;-73
2021/03/10 10:21:39;;;;;;;36.75;27.60;;;5.70;99.90;;;;;;4982886;28;20137;-74
2021/03/10 10:24:05;;;;;;;46.15;30.63;;;5.80;99.90;;;;;;4984740;28;20419;-73
2021/03/10 10:26:32;;;;;;;38.80;28.58;;;6.00;99.90;;;;;;4993348;28;20064;-73
2021/03/10 10:28:58;;;;;;;40.63;27.35;;;6.10;99.90;;;;;;4985775;28;20050;-72
2021/03/10 10:31:41;;;;;;;41.60;27.33;;;6.00;99.90;;;;;;4969127;28;20047;-74
2021/03/10 10:34:08;;;;;;;40.85;28.50;;;6.00;99.90;;;;;;4969095;28;20078;-74
2021/03/10 10:36:36;;;;;;;36.65;27.35;;;6.00;99.90;;;;;;4984193;28;20038;-73
2021/03/10 10:39:20;;;;;;;35.80;25.88;;;5.90;99.90;;;;;;4968100;28;20047;-74
2021/03/10 10:41:47;;;;;;;39.03;28.33;;;5.90;99.90;;;;;;4982825;28;20061;-73
2021/03/10 10:44:16;;;;;;;35.50;28.00;;;5.90;99.90;;;;;;4965211;28;20061;-74
2021/03/10 10:46:45;;;;;;;37.50;29.38;;;6.00;99.90;;;;;;4997753;28;20096;-74
2021/03/10 10:49:11;;;;;;;47.50;32.30;;;6.10;99.90;;;;;;4959998;28;20050;-73
2021/03/10 10:51:37;;;;;;;44.20;30.33;;;6.10;99.90;;;;;;4984666;28;20046;-73
2021/03/10 10:54:12;;;;;;;33.10;26.05;;;6.10;99.90;;;;;;4954985;28;20117;-74
2021/03/10 10:56:40;;;;;;;36.03;27.67;;;6.10;99.90;;;;;;5001138;28;20042;-73
2021/03/10 10:59:22;;;;;;;33.70;27.25;;;6.10;99.90;;;;;;4985835;28;20065;-74
2021/03/10 11:01:49;;;;;;;39.67;28.45;;;6.30;99.90;;;;;;4984723;28;20046;-74
2021/03/10 11:04:15;;;;;;;33.20;26.25;;;6.50;99.90;;;;;;4985178;28;20612;-74
2021/03/10 11:06:42;;;;;;;35.17;27.33;;;6.50;99.90;;;;;;4966139;28;20046;-75
2021/03/10 11:09:08;;;;;;;34.65;26.73;;;6.60;99.90;;;;;;4983781;28;20046;-72
2021/03/10 11:11:35;;;;;;;33.47;27.45;;;6.60;99.90;;;;;;4981114;28;20046;-73
2021/03/10 11:14:03;;;;;;;31.50;27.60;;;6.80;99.90;;;;;;4964493;28;20613;-73
2021/03/10 11:16:56;;;;;;;33.17;27.17;;;6.90;99.90;;;;;;4990008;28;20333;-73
2021/03/10 11:19:30;;;;;;;30.23;25.67;;;7.00;99.90;;;;;;4999070;28;20503;-73
2021/03/10 11:21:58;;;;;;;30.35;25.17;;;7.10;99.90;;;;;;4999952;28;20050;-73
2021/03/10 11:24:25;;;;;;;25.75;23.00;;;7.30;99.90;;;;;;5001268;28;20054;-75
2021/03/10 11:26:52;;;;;;;28.02;22.83;;;7.40;99.90;;;;;;4966983;28;20046;-74
2021/03/10 11:29:23;;;;;;;28.38;24.13;;;7.40;99.90;;;;;;4980981;28;20084;-74
2021/03/10 11:31:50;;;;;;;28.33;22.35;;;7.50;99.90;;;;;;4961279;28;20042;-75
2021/03/10 11:34:18;;;;;;;28.73;25.33;;;7.60;99.90;;;;;;4971617;28;20046;-73
2021/03/10 11:36:46;;;;;;;27.42;24.17;;;7.40;99.90;;;;;;4983576;28;20511;-73
2021/03/10 11:39:15;;;;;;;31.63;25.08;;;7.70;99.90;;;;;;4979852;28;20066;-74
2021/03/10 11:41:42;;;;;;;25.90;23.13;;;7.80;99.90;;;;;;4979803;28;20054;-73
2021/03/10 11:44:09;;;;;;;28.40;24.48;;;8.00;99.90;;;;;;5000999;28;20045;-73
2021/03/10 11:46:36;;;;;;;24.98;22.33;;;8.00;99.90;;;;;;4985614;28;20062;-74
2021/03/10 11:49:04;;;;;;;26.15;23.35;;;8.20;99.90;;;;;;4985388;28;20058;-75
2021/03/10 11:51:31;;;;;;;30.33;25.13;;;8.40;99.90;;;;;;5010339;28;20046;-74
2021/03/10 11:53:58;;;;;;;30.25;23.15;;;8.30;99.90;;;;;;5003805;28;20522;-74
2021/03/10 11:56:25;;;;;;;29.23;25.08;;;8.20;99.90;;;;;;4984036;28;20046;-74
2021/03/10 11:58:51;;;;;;;29.33;25.13;;;8.30;99.90;;;;;;4981649;28;20208;-73
2021/03/10 12:01:28;;;;;;;32.72;26.40;;;8.00;99.90;;;;;;4990695;28;20058;-73
2021/03/10 12:03:55;;;;;;;27.75;24.58;;;7.90;99.90;;;;;;4984510;28;20054;-73
2021/03/10 12:06:31;;;;;;;29.25;25.83;;;7.80;99.90;;;;;;4977872;28;20054;-73
2021/03/10 12:08:58;;;;;;;25.77;22.95;;;7.70;99.90;;;;;;4964997;28;20051;-73
2021/03/10 12:11:25;;;;;;;29.60;26.52;;;7.70;99.90;;;;;;4995170;28;20051;-75
2021/03/10 12:13:51;;;;;;;27.45;24.50;;;7.80;99.90;;;;;;4992949;28;20118;-74
2021/03/10 12:16:17;;;;;;;30.67;25.90;;;7.80;99.90;;;;;;4982068;28;20070;-74
2021/03/10 12:18:44;;;;;;;34.60;26.25;;;7.90;99.90;;;;;;4989679;28;20701;-73
2021/03/10 12:21:13;;;;;;;29.48;25.48;;;7.80;99.90;;;;;;4985071;28;20216;-74
2021/03/10 12:23:40;;;;;;;31.50;25.38;;;7.80;99.90;;;;;;5016983;28;20065;-75
2021/03/10 12:26:06;;;;;;;29.48;25.95;;;7.70;99.90;;;;;;4983292;28;20140;-74
2021/03/10 12:28:32;;;;;;;35.58;26.10;;;7.70;99.90;;;;;;4981515;28;20496;-74
2021/03/10 12:31:00;;;;;;;26.23;22.92;;;7.80;99.90;;;;;;5009184;28;20042;-75
2021/03/10 12:33:27;;;;;;;26.48;22.85;;;7.90;99.90;;;;;;4982258;28;20069;-75
2021/03/10 12:35:54;;;;;;;25.77;23.00;;;7.80;99.90;;;;;;4995955;28;20061;-73
2021/03/10 12:38:20;;;;;;;26.08;23.33;;;7.70;99.90;;;;;;4969445;28;20064;-74